Time;durP1;ratioP1;P1;durP2;ratioP2;P2;SDS_P1;SDS_P2;PMS_P1;PMS_P2;Temp;Humidity;BMP_temperature;BMP_pressure;BME280_temperature;BME280_humidity;BME280_pressure;Samples;Min_cycle;Max_cycle;Signal;HPM_P1;HPM_P2
2023/10/01 00:00:13;;;;;;;2.40;2.30;;;;;;;-146.25;100.00;57403.91;4951237;29;20234;-84
2023/10/01 00:02:41;;;;;;;2.67;2.43;;;;;;;-146.25;100.00;57403.91;4950550;29;20199;-84
2023/10/01 00:05:11;;;;;;;2.13;1.97;;;;;;;-146.25;100.00;57403.91;4951736;29;20226;-83
2023/10/01 00:07:39;;;;;;;4.37;2.27;;;;;;;-146.25;100.00;57403.91;4952378;29;20199;-84
2023/10/01 00:10:10;;;;;;;2.33;2.22;;;;;;;-146.25;100.00;57403.91;4951044;29;20308;-84
2023/10/01 00:12:44;;;;;;;2.27;2.07;;;;;;;-146.25;100.00;57403.91;4951036;29;20328;-84
2023/10/01 00:15:14;;;;;;;2.33;2.22;;;;;;;-146.25;100.00;57403.91;4950796;28;20223;-84
2023/10/01 00:17:44;;;;;;;2.60;2.40;;;;;;;-146.25;100.00;57403.91;4950895;29;20400;-85
2023/10/01 00:20:18;;;;;;;9.10;2.00;;;;;;;-146.25;100.00;57403.91;4951147;29;20348;-84
2023/10/01 00:22:46;;;;;;;3.00;2.80;;;;;;;-146.25;100.00;57403.91;4950734;29;20208;-84
2023/10/01 00:25:15;;;;;;;2.33;2.13;;;;;;;-146.25;100.00;57403.91;4951074;29;20212;-85
2023/10/01 00:27:42;;;;;;;2.60;2.50;;;;;;;-146.25;100.00;57403.91;4950736;29;20297;-84
2023/10/01 00:30:11;;;;;;;2.57;2.10;;;;;;;-146.25;100.00;57403.91;4951121;29;20213;-84
2023/10/01 00:32:39;;;;;;;2.50;2.23;;;;;;;-146.25;100.00;57403.91;4951144;29;20590;-84
2023/10/01 00:35:07;;;;;;;2.30;2.13;;;;;;;-146.25;100.00;57403.91;4950706;29;20203;-84
2023/10/01 00:37:36;;;;;;;2.00;1.90;;;;;;;-146.25;100.00;57403.91;4950710;29;20211;-83
2023/10/01 00:40:06;;;;;;;3.83;2.47;;;;;;;-146.25;100.00;57403.91;4951376;29;20695;-83
2023/10/01 00:42:34;;;;;;;2.47;2.20;;;;;;;-146.25;100.00;57403.91;4950441;29;20287;-84
2023/10/01 00:45:03;;;;;;;2.27;2.17;;;;;;;-146.25;100.00;57403.91;4950883;29;20336;-85
2023/10/01 00:47:32;;;;;;;3.77;2.23;;;;;;;-146.25;100.00;57403.91;4950837;29;20735;-85
2023/10/01 00:50:01;;;;;;;1.93;1.83;;;;;;;-146.25;100.00;57403.91;4950321;29;20243;-83
2023/10/01 00:52:30;;;;;;;1.70;1.60;;;;;;;-146.25;100.00;57403.91;4951105;29;20290;-84
2023/10/01 00:54:59;;;;;;;2.10;2.00;;;;;;;-146.25;100.00;57403.91;4951280;29;20309;-83
2023/10/01 00:57:27;;;;;;;2.27;2.17;;;;;;;-146.25;100.00;57403.91;4950338;29;20199;-84
2023/10/01 00:59:54;;;;;;;2.67;2.47;;;;;;;-146.25;100.00;57403.91;4951104;29;20236;-84
2023/10/01 01:02:23;;;;;;;2.77;2.20;;;;;;;-146.25;100.00;57403.91;4950438;29;20613;-85
2023/10/01 01:05:06;;;;;;;3.83;2.37;;;;;;;-146.25;100.00;57403.91;4949552;28;20309;-84
2023/10/01 01:07:36;;;;;;;3.13;2.20;;;;;;;-146.25;100.00;57403.91;4950637;29;20203;-85
2023/10/01 01:10:06;;;;;;;2.30;2.10;;;;;;;-146.25;100.00;57403.91;4951109;29;20211;-85
2023/10/01 01:12:35;;;;;;;2.27;2.07;;;;;;;-146.25;100.00;57403.91;4950158;29;20217;-85
2023/10/01 01:15:12;;;;;;;2.00;1.90;;;;;;;-146.25;100.00;57403.91;4951078;28;20560;-84
2023/10/01 01:17:40;;;;;;;6.93;2.33;;;;;;;-146.25;100.00;57403.91;4951023;29;20194;-83
2023/10/01 01:20:09;;;;;;;1.90;1.80;;;;;;;-146.25;100.00;57403.91;4950175;29;20204;-86
2023/10/01 01:22:39;;;;;;;4.50;2.30;;;;;;;-146.25;100.00;57403.91;4950656;29;20202;-84
2023/10/01 01:25:10;;;;;;;2.30;2.20;;;;;;;-146.25;100.00;57403.91;4951883;29;20285;-82
2023/10/01 01:27:37;;;;;;;3.70;1.90;;;;;;;-146.25;100.00;57403.91;4971514;28;20271;-83
2023/10/01 01:30:08;;;;;;;2.40;2.30;;;;;;;-146.25;100.00;57403.91;4975535;29;20331;-84
2023/10/01 01:32:36;;;;;;;2.50;1.97;;;;;;;-146.25;100.00;57403.91;4973698;29;20199;-82
2023/10/01 01:35:05;;;;;;;3.67;2.27;;;;;;;-146.25;100.00;57403.91;4962330;29;20199;-84
2023/10/01 01:37:46;;;;;;;3.53;3.00;;;;;;;-146.25;100.00;57403.91;4961818;29;20203;-85
2023/10/01 01:40:24;;;;;;;2.37;2.17;;;;;;;-146.25;100.00;57403.91;4958858;29;20199;-85
2023/10/01 01:42:56;;;;;;;1.87;1.83;;;;;;;-146.25;100.00;57403.91;4954361;29;20211;-84
2023/10/01 01:45:27;;;;;;;2.20;2.10;;;;;;;-146.25;100.00;57403.91;4953995;29;20259;-85
2023/10/01 01:47:54;;;;;;;2.27;2.17;;;;;;;-146.25;100.00;57403.91;4954048;29;20210;-84
2023/10/01 01:50:26;;;;;;;2.20;2.10;;;;;;;-146.25;100.00;57403.91;4951984;29;20236;-84
2023/10/01 01:52:56;;;;;;;2.07;1.97;;;;;;;-146.25;100.00;57403.91;4953319;29;20210;-83
2023/10/01 01:55:27;;;;;;;2.33;2.23;;;;;;;-146.25;100.00;57403.91;4955514;29;20286;-83
2023/10/01 01:58:07;;;;;;;3.97;2.30;;;;;;;-146.25;100.00;57403.91;4953843;29;20207;-83
2023/10/01 02:00:38;;;;;;;2.30;2.20;;;;;;;-146.25;100.00;57403.91;4956034;29;20209;-86
2023/10/01 02:03:17;;;;;;;2.30;2.13;;;;;;;-146.25;100.00;57403.91;4953188;28;20603;-85
2023/10/01 02:05:47;;;;;;;2.40;2.20;;;;;;;-146.25;100.00;57403.91;4953264;29;20197;-84
2023/10/01 02:08:23;;;;;;;4.73;2.30;;;;;;;-146.25;100.00;57403.91;4953217;29;20245;-85
2023/10/01 02:10:54;;;;;;;7.20;2.40;;;;;;;-146.25;100.00;57403.91;4953947;29;20209;-85
2023/10/01 02:13:21;;;;;;;2.77;2.67;;;;;;;-146.25;100.00;57403.91;4952730;29;20231;-85
2023/10/01 02:15:51;;;;;;;2.53;2.13;;;;;;;-146.25;100.00;57403.91;4952890;28;20589;-85
2023/10/01 02:18:19;;;;;;;6.20;2.07;;;;;;;-146.25;100.00;57403.91;4953173;29;20278;-85
2023/10/01 02:20:51;;;;;;;3.00;2.70;;;;;;;-146.25;100.00;57403.91;4952285;29;20227;-84
2023/10/01 02:23:26;;;;;;;2.17;2.07;;;;;;;-146.25;100.00;57403.91;4952731;29;20701;-84
2023/10/01 02:25:57;;;;;;;2.03;1.90;;;;;;;-146.25;100.00;57403.91;4953232;29;20229;-84
2023/10/01 02:28:26;;;;;;;3.77;2.20;;;;;;;-146.25;100.00;57403.91;4953487;29;20218;-85
2023/10/01 02:30:59;;;;;;;2.50;2.20;;;;;;;-146.25;100.00;57403.91;4952889;29;20200;-84
2023/10/01 02:33:54;;;;;;;5.07;2.63;;;;;;;-146.25;100.00;57403.91;4953314;29;20840;-83
2023/10/01 02:36:22;;;;;;;2.50;2.40;;;;;;;-146.25;100.00;57403.91;4954900;29;20308;-84
2023/10/01 02:38:53;;;;;;;2.47;2.30;;;;;;;-146.25;100.00;57403.91;4953789;28;20202;-83
2023/10/01 02:41:25;;;;;;;2.93;2.30;;;;;;;-146.25;100.00;57403.91;4952428;29;20195;-84
2023/10/01 02:43:52;;;;;;;2.40;2.20;;;;;;;-146.25;100.00;57403.91;4952013;29;20608;-85
2023/10/01 02:46:26;;;;;;;3.20;3.00;;;;;;;-146.25;100.00;57403.91;4951715;29;20704;-83
2023/10/01 02:48:54;;;;;;;2.90;2.70;;;;;;;-146.25;100.00;57403.91;4951980;29;20223;-85
2023/10/01 02:51:32;;;;;;;2.30;2.20;;;;;;;-146.25;100.00;57403.91;4952096;29;20303;-84
2023/10/01 02:54:04;;;;;;;3.20;2.50;;;;;;;-146.25;100.00;57403.91;4952657;29;20227;-83
2023/10/01 02:56:36;;;;;;;2.30;2.10;;;;;;;-146.25;100.00;57403.91;4951424;29;20199;-84
2023/10/01 02:59:11;;;;;;;2.63;2.30;;;;;;;-146.25;100.00;57403.91;4952409;29;20213;-84
2023/10/01 03:01:39;;;;;;;2.90;2.10;;;;;;;-146.25;100.00;57403.91;4952453;29;20210;-84
2023/10/01 03:04:10;;;;;;;2.50;2.33;;;;;;;-146.25;100.00;57403.91;4951241;28;20281;-83
2023/10/01 03:06:42;;;;;;;2.13;1.93;;;;;;;-146.25;100.00;57403.91;4952223;29;20277;-85
2023/10/01 03:09:22;;;;;;;3.27;2.80;;;;;;;-146.25;100.00;57403.91;4952098;29;20246;-84
2023/10/01 03:11:53;;;;;;;3.50;2.70;;;;;;;-146.25;100.00;57403.91;4951502;29;20293;-84
2023/10/01 03:14:25;;;;;;;2.90;2.60;;;;;;;-146.25;100.00;57403.91;4952415;28;20239;-83
2023/10/01 03:16:57;;;;;;;2.53;2.37;;;;;;;-146.25;100.00;57403.91;4951580;29;20207;-83
2023/10/01 03:19:26;;;;;;;2.37;2.20;;;;;;;-146.25;100.00;57403.91;4950946;29;20190;-85
2023/10/01 03:24:45;;;;;;;5.20;1.97;;;;;;;-146.25;100.00;57403.91;4945202;29;20274;-86
2023/10/01 03:27:19;;;;;;;3.60;3.30;;;;;;;-146.25;100.00;57403.91;4951624;29;20200;-84
2023/10/01 03:29:49;;;;;;;10.80;7.97;;;;;;;-146.25;100.00;57403.91;4951905;29;20386;-84
2023/10/01 03:32:27;;;;;;;3.53;3.23;;;;;;;-146.25;100.00;57403.91;4951612;29;20228;-83
2023/10/01 03:34:55;;;;;;;3.67;2.50;;;;;;;-146.25;100.00;57403.91;4951904;29;20250;-84
2023/10/01 03:37:27;;;;;;;2.93;2.67;;;;;;;-146.25;100.00;57403.91;4951858;29;20286;-84
2023/10/01 03:40:04;;;;;;;3.00;2.80;;;;;;;-146.25;100.00;57403.91;4952255;29;20234;-85
2023/10/01 03:42:37;;;;;;;2.90;2.70;;;;;;;-146.25;100.00;57403.91;4951798;29;20213;-82
2023/10/01 03:45:37;;;;;;;6.13;5.00;;;;;;;-146.25;100.00;57403.91;4952337;29;20219;-82
2023/10/01 03:48:07;;;;;;;2.80;2.60;;;;;;;-146.25;100.00;57403.91;4951138;29;20257;-81
2023/10/01 03:50:45;;;;;;;3.13;2.60;;;;;;;-146.25;100.00;57403.91;4951817;28;20279;-83
2023/10/01 03:53:17;;;;;;;5.00;3.27;;;;;;;-146.25;100.00;57403.91;4952148;29;20250;-83
2023/10/01 03:55:46;;;;;;;5.63;3.23;;;;;;;-146.25;100.00;57403.91;4951933;29;20194;-84
2023/10/01 03:58:26;;;;;;;2.97;2.77;;;;;;;-146.25;100.00;57403.91;4951408;29;20211;-84
2023/10/01 04:01:14;;;;;;;4.23;2.47;;;;;;;-146.25;100.00;57403.91;4950688;29;20206;-84
2023/10/01 04:03:42;;;;;;;2.63;2.43;;;;;;;-146.25;100.00;57403.91;4950573;28;20238;-82
2023/10/01 04:06:10;;;;;;;2.73;2.53;;;;;;;-146.25;100.00;57403.91;4950566;29;20206;-83
2023/10/01 04:08:44;;;;;;;4.33;2.80;;;;;;;-146.25;100.00;57403.91;4951200;29;20394;-85
2023/10/01 04:11:15;;;;;;;2.23;2.13;;;;;;;-146.25;100.00;57403.91;4950567;29;20218;-84
2023/10/01 04:14:07;;;;;;;3.20;3.00;;;;;;;-146.25;100.00;57403.91;4950445;29;20260;-85
2023/10/01 04:16:34;;;;;;;3.73;3.43;;;;;;;-146.25;100.00;57403.91;4950394;29;20369;-85
2023/10/01 04:19:10;;;;;;;3.27;2.97;;;;;;;-146.25;100.00;57403.91;4950906;29;20318;-84
2023/10/01 04:21:38;;;;;;;3.60;2.30;;;;;;;-146.25;100.00;57403.91;4950449;29;20202;-83
2023/10/01 04:24:04;;;;;;;2.40;2.20;;;;;;;-146.25;100.00;57403.91;4950940;29;20203;-84
2023/10/01 04:26:35;;;;;;;3.93;2.70;;;;;;;-146.25;100.00;57403.91;4950469;29;20202;-84
2023/10/01 04:29:08;;;;;;;3.37;3.13;;;;;;;-146.25;100.00;57403.91;4950689;29;20198;-85
2023/10/01 04:31:49;;;;;;;4.33;2.87;;;;;;;-146.25;100.00;57403.91;4950991;29;20205;-83
2023/10/01 04:34:17;;;;;;;3.27;2.97;;;;;;;-146.25;100.00;57403.91;4950544;29;20237;-85
2023/10/01 04:36:50;;;;;;;2.67;2.47;;;;;;;-146.25;100.00;57403.91;4950232;29;20677;-84
2023/10/01 04:39:18;;;;;;;2.50;2.30;;;;;;;-146.25;100.00;57403.91;4950598;29;20198;-85
2023/10/01 04:41:47;;;;;;;2.53;2.40;;;;;;;-146.25;100.00;57403.91;4950378;29;20285;-85
2023/10/01 04:44:19;;;;;;;5.67;3.27;;;;;;;-146.25;100.00;57403.91;4951023;29;20293;-85
2023/10/01 04:46:47;;;;;;;2.20;2.10;;;;;;;-146.25;100.00;57403.91;4950554;29;20199;-84
2023/10/01 04:52:01;;;;;;;5.78;2.85;;;;;;;-146.25;100.00;57403.91;4948322;29;20197;-86
2023/10/01 04:54:29;;;;;;;4.50;2.80;;;;;;;-146.25;100.00;57403.91;4950211;29;20242;-84
2023/10/01 04:56:57;;;;;;;2.70;2.50;;;;;;;-146.25;100.00;57403.91;4950153;29;20285;-85
2023/10/01 04:59:27;;;;;;;3.40;2.92;;;;;;;-146.25;100.00;57403.91;4950731;29;20243;-84
2023/10/01 05:01:56;;;;;;;3.95;2.72;;;;;;;-146.25;100.00;57403.91;4950496;28;20213;-84
2023/10/01 05:04:24;;;;;;;3.55;2.88;;;;;;;-146.25;100.00;57403.91;4953761;28;20257;-85
2023/10/01 05:07:04;;;;;;;3.70;3.33;;;;;;;-146.25;100.00;57403.91;4954160;29;20695;-85
2023/10/01 05:09:33;;;;;;;2.78;2.60;;;;;;;-146.25;100.00;57403.91;4954213;29;20708;-85
2023/10/01 05:12:03;;;;;;;6.00;3.25;;;;;;;-146.25;100.00;57403.91;4954359;29;20559;-86
2023/10/01 05:14:32;;;;;;;3.58;3.38;;;;;;;-146.25;100.00;57403.91;4953848;28;20720;-86
2023/10/01 05:17:07;;;;;;;4.95;2.80;;;;;;;-146.25;100.00;57403.91;4954964;29;20206;-84
2023/10/01 05:19:37;;;;;;;2.90;2.60;;;;;;;-146.25;100.00;57403.91;4955629;29;20222;-85
2023/10/01 05:22:05;;;;;;;2.95;2.75;;;;;;;-146.25;100.00;57403.91;4954821;29;20206;-85
2023/10/01 05:24:35;;;;;;;3.20;3.00;;;;;;;-146.25;100.00;57403.91;4954561;29;20202;-85
2023/10/01 05:27:06;;;;;;;3.60;2.97;;;;;;;-146.25;100.00;57403.91;4954307;29;20385;-84
2023/10/01 05:29:38;;;;;;;4.82;2.83;;;;;;;-146.25;100.00;57403.91;4954716;29;20207;-86
2023/10/01 05:32:06;;;;;;;3.05;2.85;;;;;;;-146.25;100.00;57403.91;4954406;29;20207;-86
2023/10/01 05:34:33;;;;;;;8.18;2.90;;;;;;;-146.25;100.00;57403.91;4954921;29;20226;-84
2023/10/01 05:37:09;;;;;;;3.55;3.25;;;;;;;-146.25;100.00;57403.91;4955203;29;20504;-84
2023/10/01 05:39:55;;;;;;;2.70;2.50;;;;;;;-146.25;100.00;57403.91;4954762;29;20194;-85
2023/10/01 05:42:25;;;;;;;3.15;2.95;;;;;;;-146.25;100.00;57403.91;4954859;29;20301;-85
2023/10/01 05:44:54;;;;;;;6.22;3.38;;;;;;;-146.25;100.00;57403.91;4954062;29;20245;-85
2023/10/01 05:47:23;;;;;;;9.43;3.42;;;;;;;-146.25;100.00;57403.91;4954733;29;20210;-85
2023/10/01 05:49:53;;;;;;;3.75;3.45;;;;;;;-146.25;100.00;57403.91;4957254;29;20262;-86
2023/10/01 05:52:22;;;;;;;3.40;3.20;;;;;;;-146.25;100.00;57403.91;4954852;29;20203;-86
2023/10/01 05:54:53;;;;;;;3.75;3.55;;;;;;;-146.25;100.00;57403.91;4954267;29;20319;-85
2023/10/01 05:57:22;;;;;;;3.97;3.58;;;;;;;-146.25;100.00;57403.91;4955390;29;20334;-85
2023/10/01 05:59:56;;;;;;;4.97;3.55;;;;;;;-146.25;100.00;57403.91;4954777;29;20199;-85
2023/10/01 06:02:47;;;;;;;3.50;3.20;;;;;;;-146.25;100.00;57403.91;4957831;29;20321;-85
2023/10/01 06:05:32;;;;;;;3.55;3.35;;;;;;;-146.25;100.00;57403.91;4960386;29;20663;-85
2023/10/01 06:08:00;;;;;;;3.83;3.63;;;;;;;-146.25;100.00;57403.91;4966804;29;20199;-83
2023/10/01 06:10:35;;;;;;;3.72;3.42;;;;;;;-146.25;100.00;57403.91;4973892;29;20310;-82
2023/10/01 06:13:06;;;;;;;3.30;3.20;;;;;;;-146.25;100.00;57403.91;4974004;28;20198;-84
2023/10/01 06:15:39;;;;;;;3.53;3.33;;;;;;;-146.25;100.00;57403.91;4967354;28;20238;-85
2023/10/01 06:18:08;;;;;;;3.97;3.50;;;;;;;-146.25;100.00;57403.91;4963639;29;20276;-85
2023/10/01 06:20:38;;;;;;;4.30;3.20;;;;;;;-146.25;100.00;57403.91;4961514;29;20233;-85
2023/10/01 06:23:07;;;;;;;3.70;3.45;;;;;;;-146.25;100.00;57403.91;4958196;29;20207;-85
2023/10/01 06:25:41;;;;;;;5.18;3.92;;;;;;;-146.25;100.00;57403.91;4958745;29;20206;-84
2023/10/01 06:28:10;;;;;;;4.30;3.90;;;;;;;-146.25;100.00;57403.91;4954498;29;20277;-85
2023/10/01 06:30:40;;;;;;;4.25;3.95;;;;;;;-146.25;100.00;57403.91;4954053;29;20218;-85
2023/10/01 06:33:24;;;;;;;4.63;4.20;;;;;;;-146.25;100.00;57403.91;4955297;29;20310;-84
2023/10/01 06:36:15;;;;;;;8.65;3.97;;;;;;;-146.25;100.00;57403.91;4954329;29;20363;-86
2023/10/01 06:38:44;;;;;;;6.38;4.28;;;;;;;-146.25;100.00;57403.91;4957674;29;20297;-85
2023/10/01 06:41:16;;;;;;;4.68;4.28;;;;;;;-146.25;100.00;57403.91;4957236;29;20203;-85
2023/10/01 06:43:54;;;;;;;4.15;3.95;;;;;;;-146.25;100.00;57403.91;4953880;29;20207;-86
2023/10/01 06:46:37;;;;;;;;;;;;;;;;;;;;;
2023/10/01 06:50:12;;;;;;;3.70;3.50;;;;;;;-146.25;100.00;57403.91;4957988;28;20190;-87
2023/10/01 06:56:24;;;;;;;;;;;;;;;;;;;;;
2023/10/01 06:59:46;;;;;;;4.35;3.72;;;;;;;-146.25;100.00;57403.91;4904695;28;20246;-85
2023/10/01 07:02:40;;;;;;;;;;;;;;;;;;;;;
2023/10/01 07:07:52;;;;;;;5.03;4.57;;;;;;;-146.25;100.00;57403.91;4951612;29;20253;-85
2023/10/01 07:10:21;;;;;;;4.43;4.03;;;;;;;-146.25;100.00;57403.91;4953365;29;20199;-86
2023/10/01 07:12:58;;;;;;;5.28;4.82;;;;;;;-146.25;100.00;57403.91;4953554;29;20198;-85
2023/10/01 07:15:26;;;;;;;4.60;4.20;;;;;;;-146.25;100.00;57403.91;4952282;28;20242;-85
2023/10/01 07:17:53;;;;;;;4.97;4.43;;;;;;;-146.25;100.00;57403.91;4960219;28;20285;-87
2023/10/01 07:20:24;;;;;;;4.80;4.32;;;;;;;-146.25;100.00;57403.91;4972349;28;20332;-87
2023/10/01 07:22:52;;;;;;;4.97;4.45;;;;;;;-146.25;100.00;57403.91;4971588;28;20211;-87
2023/10/01 07:25:37;;;;;;;7.03;4.25;;;;;;;-146.25;100.00;57403.91;4959173;28;20205;-86
2023/10/01 07:28:06;;;;;;;5.30;4.85;;;;;;;-146.25;100.00;57403.91;4966177;28;20202;-86
2023/10/01 07:30:45;;;;;;;5.75;4.90;;;;;;;-146.25;100.00;57403.91;4964123;28;20741;-85
2023/10/01 07:33:14;;;;;;;8.82;5.43;;;;;;;-146.25;100.00;57403.91;4951938;29;20210;-85
2023/10/01 07:35:45;;;;;;;7.60;5.38;;;;;;;-146.25;100.00;57403.91;4951348;29;20849;-86
2023/10/01 07:38:17;;;;;;;5.88;4.78;;;;;;;-146.25;100.00;57403.91;4957575;28;20267;-88
2023/10/01 07:40:58;;;;;;;5.13;4.72;;;;;;;-146.25;100.00;57403.91;4957661;28;20207;-90
2023/10/01 07:43:30;;;;;;;8.63;5.30;;;;;;;-146.25;100.00;57403.91;4963516;28;20202;-89
2023/10/01 07:46:02;;;;;;;8.48;4.65;;;;;;;-146.25;100.00;57403.91;4965000;28;20226;-86
2023/10/01 07:48:31;;;;;;;5.30;4.80;;;;;;;-146.25;100.00;57403.91;4966522;28;20268;-88
2023/10/01 07:51:03;;;;;;;5.47;4.53;;;;;;;-146.25;100.00;57403.91;4965947;28;20195;-89
2023/10/01 07:53:33;;;;;;;5.03;4.63;;;;;;;-146.25;100.00;57403.91;4965466;28;20298;-89
2023/10/01 07:56:02;;;;;;;5.35;4.95;;;;;;;-146.25;100.00;57403.91;4960381;28;20233;-88
2023/10/01 08:04:05;;;;;;;9.27;5.50;;;;;;;-146.25;100.00;57403.91;4957878;28;20237;-89
2023/10/01 08:06:42;;;;;;;7.43;5.47;;;;;;;-146.25;100.00;57403.91;4960168;28;20193;-87
2023/10/01 08:09:13;;;;;;;12.27;6.25;;;;;;;-146.25;100.00;57403.91;4958358;28;20470;-87
2023/10/01 08:12:05;;;;;;;5.60;5.07;;;;;;;-146.25;100.00;57403.91;4958765;28;20195;-90
2023/10/01 08:14:33;;;;;;;6.05;5.15;;;;;;;-146.25;100.00;57403.91;4962134;28;20676;-91
2023/10/01 08:17:20;;;;;;;7.50;5.38;;;;;;;-146.25;100.00;57403.91;4965569;28;20198;-91
2023/10/01 08:19:56;;;;;;;9.70;5.47;;;;;;;-146.25;100.00;57403.91;4951202;28;20584;-89
2023/10/01 08:22:43;;;;;;;7.60;5.45;;;;;;;-146.25;100.00;57403.91;4954114;28;20226;-88
2023/10/01 08:25:12;;;;;;;8.38;5.53;;;;;;;-146.25;100.00;57403.91;4943351;28;20198;-88
2023/10/01 08:28:09;;;;;;;7.30;5.40;;;;;;;-146.25;100.00;57403.91;4952979;28;20210;-90
2023/10/01 08:30:39;;;;;;;5.50;4.80;;;;;;;-146.25;100.00;57403.91;4952820;28;20294;-85
2023/10/01 08:33:18;;;;;;;5.38;4.95;;;;;;;-146.25;100.00;57403.91;4933137;29;20269;-90
2023/10/01 08:35:56;;;;;;;6.55;4.97;;;;;;;-146.25;100.00;57403.91;4952699;28;20222;-89
2023/10/01 08:38:29;;;;;;;7.55;5.43;;;;;;;-146.25;100.00;57403.91;4959245;28;20246;-88
2023/10/01 08:41:02;;;;;;;5.55;5.05;;;;;;;-146.25;100.00;57403.91;4950730;28;20292;-89
2023/10/01 08:43:36;;;;;;;5.13;4.47;;;;;;;-146.25;100.00;57403.91;4962312;28;20262;-89
2023/10/01 08:46:13;;;;;;;8.95;5.03;;;;;;;-146.25;100.00;57403.91;4958915;28;20230;-88
2023/10/01 08:48:43;;;;;;;6.78;4.95;;;;;;;-146.25;100.00;57403.91;4960292;28;20226;-88
2023/10/01 08:51:13;;;;;;;5.57;5.03;;;;;;;-146.25;100.00;57403.91;4966335;28;20738;-90
2023/10/01 08:53:46;;;;;;;6.85;5.50;;;;;;;-146.25;100.00;57403.91;4962502;28;20221;-87
2023/10/01 08:56:33;;;;;;;8.18;5.45;;;;;;;-146.25;100.00;57403.91;4962912;28;20333;-90
2023/10/01 08:59:23;;;;;;;7.05;4.78;;;;;;;-146.25;100.00;57403.91;4962786;28;20229;-88
2023/10/01 09:01:52;;;;;;;7.80;5.07;;;;;;;-146.25;100.00;57403.91;4960839;28;20238;-88
2023/10/01 09:04:44;;;;;;;5.40;4.90;;;;;;;-146.25;100.00;57403.91;4963132;28;20328;-88
2023/10/01 09:07:18;;;;;;;5.05;4.63;;;;;;;-146.25;100.00;57403.91;4960570;28;20261;-89
2023/10/01 09:10:17;;;;;;;6.18;5.40;;;;;;;-146.25;100.00;57403.91;4962407;28;20478;-89
2023/10/01 09:12:49;;;;;;;9.30;4.72;;;;;;;-146.25;100.00;57403.91;4962963;28;20321;-89
2023/10/01 09:15:28;;;;;;;7.32;5.15;;;;;;;-146.25;100.00;57403.91;4962622;28;20290;-87
2023/10/01 09:18:10;;;;;;;6.50;5.20;;;;;;;-146.25;100.00;57403.91;4971380;28;20722;-88
2023/10/01 09:21:03;;;;;;;5.47;4.97;;;;;;;-146.25;100.00;57403.91;4973755;28;20240;-89
2023/10/01 09:23:54;;;;;;;8.93;4.47;;;;;;;-146.25;100.00;57403.91;4959918;28;22332;-90
2023/10/01 09:29:26;;;;;;;7.43;4.72;;;;;;;-146.25;100.00;57403.91;4968875;28;20267;-90
2023/10/01 09:31:56;;;;;;;6.43;4.13;;;;;;;-146.25;100.00;57403.91;4984940;28;20220;-90
2023/10/01 09:34:35;;;;;;;9.85;4.95;;;;;;;-146.25;100.00;57403.91;4971529;28;20242;-90
2023/10/01 09:37:30;;;;;;;7.57;5.05;;;;;;;-146.25;100.00;57403.91;4961628;28;20252;-89
2023/10/01 09:40:03;;;;;;;11.63;4.88;;;;;;;-146.25;100.00;57403.91;4969507;28;20325;-89
2023/10/01 09:42:44;;;;;;;8.27;5.15;;;;;;;-146.25;100.00;57403.91;4966265;28;20962;-88
2023/10/01 09:45:27;;;;;;;8.20;5.32;;;;;;;-146.25;100.00;57403.91;4951893;28;20232;-87
2023/10/01 09:48:28;;;;;;;10.30;5.72;;;;;;;-146.25;100.00;57403.91;4966710;28;20225;-89
2023/10/01 09:51:07;;;;;;;5.35;4.70;;;;;;;-146.25;100.00;57403.91;4962109;28;20224;-86
2023/10/01 09:53:48;;;;;;;6.65;5.00;;;;;;;-146.25;100.00;57403.91;4950876;28;20222;-86
2023/10/01 09:56:26;;;;;;;6.72;5.28;;;;;;;-146.25;100.00;57403.91;4961877;28;20317;-90
2023/10/01 09:59:07;;;;;;;7.43;5.20;;;;;;;-146.25;100.00;57403.91;4956064;28;20306;-89
2023/10/01 10:01:42;;;;;;;8.32;4.95;;;;;;;-146.25;100.00;57403.91;4967744;28;20300;-89
2023/10/01 10:04:19;;;;;;;6.28;4.90;;;;;;;-146.25;100.00;57403.91;4971317;28;20299;-91
2023/10/01 10:06:59;;;;;;;7.05;4.50;;;;;;;-146.25;100.00;57403.91;4976859;28;20254;-89
2023/10/01 10:09:30;;;;;;;5.70;4.22;;;;;;;-146.25;100.00;57403.91;4975205;28;20313;-90
2023/10/01 10:12:01;;;;;;;3.85;3.33;;;;;;;-146.25;100.00;57403.91;4974391;28;20669;-90
2023/10/01 10:14:58;;;;;;;6.05;4.47;;;;;;;-146.25;100.00;57403.91;4972763;28;20309;-88
2023/10/01 10:17:28;;;;;;;7.95;5.45;;;;;;;-146.25;100.00;57403.91;4974479;28;20265;-88
2023/10/01 10:20:15;;;;;;;8.88;4.93;;;;;;;-146.25;100.00;57403.91;4958089;28;20219;-86
2023/10/01 10:23:21;;;;;;;6.07;4.25;;;;;;;-146.25;100.00;57403.91;4975325;29;20234;-90
2023/10/01 10:26:16;;;;;;;6.53;4.68;;;;;;;-146.25;100.00;57403.91;4976097;28;20218;-89
2023/10/01 10:29:16;;;;;;;6.07;3.97;;;;;;;-146.25;100.00;57403.91;4979699;28;20290;-88
2023/10/01 10:32:09;;;;;;;6.35;4.32;;;;;;;-146.25;100.00;57403.91;4975362;28;20282;-87
2023/10/01 10:34:47;;;;;;;5.57;4.60;;;;;;;-146.25;100.00;57403.91;4975808;28;20234;-88
2023/10/01 10:37:53;;;;;;;5.82;4.30;;;;;;;-146.25;100.00;57403.91;4989447;28;20293;-87
2023/10/01 10:40:23;;;;;;;4.55;4.15;;;;;;;-146.25;100.00;57403.91;4991296;28;20217;-87
2023/10/01 10:43:26;;;;;;;5.68;4.07;;;;;;;-146.25;100.00;57403.91;4983922;28;20225;-86
2023/10/01 10:46:09;;;;;;;5.30;4.20;;;;;;;-146.25;100.00;57403.91;4973993;28;20285;-86
2023/10/01 10:49:17;;;;;;;6.10;4.40;;;;;;;-146.25;100.00;57403.91;4958862;28;20710;-86
2023/10/01 10:51:48;;;;;;;7.45;4.32;;;;;;;-146.25;100.00;57403.91;4958782;28;20257;-86
2023/10/01 11:00:51;;;;;;;;;;;;;;;;;;;;;
2023/10/01 11:03:54;;;;;;;4.65;4.03;;;;;;;-146.25;100.00;57403.91;4953565;28;20249;-88
2023/10/01 11:07:01;;;;;;;7.38;4.18;;;;;;;-146.25;100.00;57403.91;4951691;29;20257;-88
2023/10/01 11:10:05;;;;;;;4.70;4.22;;;;;;;-146.25;100.00;57403.91;4952806;29;20234;-88
2023/10/01 11:15:49;;;;;;;4.95;4.47;;;;;;;-146.25;100.00;57403.91;4949406;28;20305;-85
2023/10/01 11:18:26;;;;;;;6.88;4.57;;;;;;;-146.25;100.00;57403.91;4961713;29;20739;-86
2023/10/01 11:21:09;;;;;;;6.65;5.15;;;;;;;-146.25;100.00;57403.91;4962650;29;20273;-85
2023/10/01 11:23:42;;;;;;;5.70;5.20;;;;;;;-146.25;100.00;57403.91;4956132;29;20223;-87
2023/10/01 11:26:26;;;;;;;5.22;4.60;;;;;;;-146.25;100.00;57403.91;4951827;29;20241;-84
2023/10/01 11:28:57;;;;;;;5.68;4.95;;;;;;;-146.25;100.00;57403.91;4951886;29;20246;-86
2023/10/01 11:31:28;;;;;;;6.38;4.90;;;;;;;-146.25;100.00;57403.91;4950839;29;20238;-86
2023/10/01 11:34:21;;;;;;;6.35;5.15;;;;;;;-146.25;100.00;57403.91;4951443;29;20313;-86
2023/10/01 11:36:56;;;;;;;8.80;5.93;;;;;;;-146.25;100.00;57403.91;4950969;29;20262;-87
2023/10/01 11:39:49;;;;;;;5.32;4.82;;;;;;;-146.25;100.00;57403.91;4951152;28;20300;-87
2023/10/01 11:42:52;;;;;;;10.48;4.90;;;;;;;-146.25;100.00;57403.91;4956114;28;20722;-88
2023/10/01 11:45:34;;;;;;;4.50;4.15;;;;;;;-146.25;100.00;57403.91;4973078;28;20225;-88
2023/10/01 11:48:19;;;;;;;5.82;4.78;;;;;;;-146.25;100.00;57403.91;4944721;29;20694;-87
2023/10/01 11:50:50;;;;;;;4.97;4.57;;;;;;;-146.25;100.00;57403.91;4951973;29;20269;-90
2023/10/01 11:53:28;;;;;;;6.13;5.10;;;;;;;-146.25;100.00;57403.91;4955871;29;20233;-88
2023/10/01 11:56:01;;;;;;;9.20;5.15;;;;;;;-146.25;100.00;57403.91;4957608;28;20251;-87
2023/10/01 11:58:48;;;;;;;7.97;5.00;;;;;;;-146.25;100.00;57403.91;4969698;28;20256;-88
2023/10/01 12:01:38;;;;;;;6.82;4.57;;;;;;;-146.25;100.00;57403.91;4972834;28;20270;-90
2023/10/01 12:04:11;;;;;;;6.53;4.75;;;;;;;-146.25;100.00;57403.91;4978392;28;20248;-87
2023/10/01 12:06:51;;;;;;;9.55;4.70;;;;;;;-146.25;100.00;57403.91;4979351;28;20226;-87
2023/10/01 12:09:39;;;;;;;6.22;4.80;;;;;;;-146.25;100.00;57403.91;4978584;28;20293;-89
2023/10/01 12:12:11;;;;;;;5.95;4.32;;;;;;;-146.25;100.00;57403.91;4975358;28;20317;-87
2023/10/01 12:17:45;;;;;;;7.65;4.90;;;;;;;-146.25;100.00;57403.91;4959911;28;20222;-86
2023/10/01 12:20:22;;;;;;;5.28;4.53;;;;;;;-146.25;100.00;57403.91;4957687;28;20222;-87
2023/10/01 12:23:08;;;;;;;4.85;4.43;;;;;;;-146.25;100.00;57403.91;4962280;28;20301;-88
2023/10/01 12:25:44;;;;;;;17.00;5.10;;;;;;;-146.25;100.00;57403.91;4962575;28;20244;-88